sensor_id;sensor_type;location;lat;lon;timestamp;pressure;altitude;pressure_sealevel;temperature
29423;BMP180;16399;51.686;8.684;2023-08-20T00:02:59;100366.00;;;20.60
29423;BMP180;16399;51.686;8.684;2023-08-20T00:06:00;100363.00;;;20.60
29423;BMP180;16399;51.686;8.684;2023-08-20T00:09:03;100371.00;;;20.60
29423;BMP180;16399;51.686;8.684;2023-08-20T00:12:07;100372.00;;;20.60
29423;BMP180;16399;51.686;8.684;2023-08-20T00:15:10;100368.00;;;20.60
29423;BMP180;16399;51.686;8.684;2023-08-20T00:18:12;100373.00;;;20.60
29423;BMP180;16399;51.686;8.684;2023-08-20T00:21:15;100375.00;;;20.60
29423;BMP180;16399;51.686;8.684;2023-08-20T00:24:17;100381.00;;;20.60
29423;BMP180;16399;51.686;8.684;2023-08-20T00:27:20;100377.00;;;20.60
29423;BMP180;16399;51.686;8.684;2023-08-20T00:30:23;100370.00;;;20.60
29423;BMP180;16399;51.686;8.684;2023-08-20T00:33:25;100368.00;;;20.60
29423;BMP180;16399;51.686;8.684;2023-08-20T00:36:27;100371.00;;;20.60
29423;BMP180;16399;51.686;8.684;2023-08-20T00:39:30;100371.00;;;20.60
29423;BMP180;16399;51.686;8.684;2023-08-20T00:42:32;100375.00;;;20.60
29423;BMP180;16399;51.686;8.684;2023-08-20T00:45:34;100368.00;;;20.60
29423;BMP180;16399;51.686;8.684;2023-08-20T00:48:38;100386.00;;;20.60
29423;BMP180;16399;51.686;8.684;2023-08-20T00:51:40;100395.00;;;20.60
29423;BMP180;16399;51.686;8.684;2023-08-20T00:54:44;100393.00;;;20.60
29423;BMP180;16399;51.686;8.684;2023-08-20T00:57:47;100393.00;;;20.60
29423;BMP180;16399;51.686;8.684;2023-08-20T01:00:49;100397.00;;;20.60
29423;BMP180;16399;51.686;8.684;2023-08-20T01:03:52;100388.00;;;20.60
29423;BMP180;16399;51.686;8.684;2023-08-20T01:10:13;100398.00;;;20.70
29423;BMP180;16399;51.686;8.684;2023-08-20T01:13:15;100402.00;;;20.70
29423;BMP180;16399;51.686;8.684;2023-08-20T01:16:18;100408.00;;;20.70
29423;BMP180;16399;51.686;8.684;2023-08-20T01:19:22;100394.00;;;20.70
29423;BMP180;16399;51.686;8.684;2023-08-20T01:25:45;100385.00;;;20.60
29423;BMP180;16399;51.686;8.684;2023-08-20T01:28:46;100387.00;;;20.70
29423;BMP180;16399;51.686;8.684;2023-08-20T01:31:49;100380.00;;;20.70
29423;BMP180;16399;51.686;8.684;2023-08-20T01:34:53;100389.00;;;20.70
29423;BMP180;16399;51.686;8.684;2023-08-20T01:37:55;100393.00;;;20.70
29423;BMP180;16399;51.686;8.684;2023-08-20T01:40:57;100381.00;;;20.70
29423;BMP180;16399;51.686;8.684;2023-08-20T01:44:00;100372.00;;;20.70
29423;BMP180;16399;51.686;8.684;2023-08-20T01:47:02;100382.00;;;20.60
29423;BMP180;16399;51.686;8.684;2023-08-20T01:50:05;100385.00;;;20.60
29423;BMP180;16399;51.686;8.684;2023-08-20T01:53:07;100385.00;;;20.60
29423;BMP180;16399;51.686;8.684;2023-08-20T01:56:12;100381.00;;;20.60
29423;BMP180;16399;51.686;8.684;2023-08-20T01:59:14;100375.00;;;20.60
29423;BMP180;16399;51.686;8.684;2023-08-20T02:02:16;100374.00;;;20.60
29423;BMP180;16399;51.686;8.684;2023-08-20T02:05:18;100374.00;;;20.60
29423;BMP180;16399;51.686;8.684;2023-08-20T02:08:21;100372.00;;;20.60
29423;BMP180;16399;51.686;8.684;2023-08-20T02:11:23;100361.00;;;20.60
29423;BMP180;16399;51.686;8.684;2023-08-20T02:14:25;100379.00;;;20.60
29423;BMP180;16399;51.686;8.684;2023-08-20T02:17:29;100373.00;;;20.60
29423;BMP180;16399;51.686;8.684;2023-08-20T02:20:31;100376.00;;;20.60
29423;BMP180;16399;51.686;8.684;2023-08-20T02:23:34;100371.00;;;20.60
29423;BMP180;16399;51.686;8.684;2023-08-20T02:26:36;100366.00;;;20.60
29423;BMP180;16399;51.686;8.684;2023-08-20T02:29:38;100370.00;;;20.60
29423;BMP180;16399;51.686;8.684;2023-08-20T02:32:41;100375.00;;;20.60
29423;BMP180;16399;51.686;8.684;2023-08-20T02:35:43;100379.00;;;20.50
29423;BMP180;16399;51.686;8.684;2023-08-20T02:38:45;100377.00;;;20.50
29423;BMP180;16399;51.686;8.684;2023-08-20T02:41:48;100383.00;;;20.50
29423;BMP180;16399;51.686;8.684;2023-08-20T02:44:50;100383.00;;;20.50
29423;BMP180;16399;51.686;8.684;2023-08-20T02:47:52;100397.00;;;20.40
29423;BMP180;16399;51.686;8.684;2023-08-20T02:50:55;100392.00;;;20.40
29423;BMP180;16399;51.686;8.684;2023-08-20T02:53:57;100392.00;;;20.40
29423;BMP180;16399;51.686;8.684;2023-08-20T02:56:59;100392.00;;;20.40
29423;BMP180;16399;51.686;8.684;2023-08-20T03:00:02;100398.00;;;20.30
29423;BMP180;16399;51.686;8.684;2023-08-20T03:03:05;100406.00;;;20.30
29423;BMP180;16399;51.686;8.684;2023-08-20T03:06:09;100401.00;;;20.30
29423;BMP180;16399;51.686;8.684;2023-08-20T03:09:11;100392.00;;;20.30
29423;BMP180;16399;51.686;8.684;2023-08-20T03:12:14;100400.00;;;20.30
29423;BMP180;16399;51.686;8.684;2023-08-20T03:15:16;100402.00;;;20.30
29423;BMP180;16399;51.686;8.684;2023-08-20T03:18:18;100400.00;;;20.30
29423;BMP180;16399;51.686;8.684;2023-08-20T03:21:20;100398.00;;;20.30
29423;BMP180;16399;51.686;8.684;2023-08-20T03:24:23;100393.00;;;20.30
29423;BMP180;16399;51.686;8.684;2023-08-20T03:27:26;100393.00;;;20.30
29423;BMP180;16399;51.686;8.684;2023-08-20T03:30:28;100397.00;;;20.30
29423;BMP180;16399;51.686;8.684;2023-08-20T03:33:31;100404.00;;;20.30
29423;BMP180;16399;51.686;8.684;2023-08-20T03:36:33;100400.00;;;20.30
29423;BMP180;16399;51.686;8.684;2023-08-20T03:39:35;100411.00;;;20.20
29423;BMP180;16399;51.686;8.684;2023-08-20T03:42:38;100409.00;;;20.20
29423;BMP180;16399;51.686;8.684;2023-08-20T03:45:40;100413.00;;;20.20
29423;BMP180;16399;51.686;8.684;2023-08-20T03:48:42;100400.00;;;20.20
29423;BMP180;16399;51.686;8.684;2023-08-20T03:51:44;100384.00;;;20.20
29423;BMP180;16399;51.686;8.684;2023-08-20T03:54:47;100406.00;;;20.20
29423;BMP180;16399;51.686;8.684;2023-08-20T03:57:49;100402.00;;;20.10
29423;BMP180;16399;51.686;8.684;2023-08-20T04:00:51;100410.00;;;20.10
29423;BMP180;16399;51.686;8.684;2023-08-20T04:03:54;100422.00;;;20.10
29423;BMP180;16399;51.686;8.684;2023-08-20T04:06:56;100417.00;;;20.10
29423;BMP180;16399;51.686;8.684;2023-08-20T04:09:58;100422.00;;;20.10
29423;BMP180;16399;51.686;8.684;2023-08-20T04:13:01;100429.00;;;20.10
29423;BMP180;16399;51.686;8.684;2023-08-20T04:16:03;100425.00;;;20.10
29423;BMP180;16399;51.686;8.684;2023-08-20T04:19:05;100439.00;;;20.10
29423;BMP180;16399;51.686;8.684;2023-08-20T04:22:08;100447.00;;;20.10
29423;BMP180;16399;51.686;8.684;2023-08-20T04:25:10;100447.00;;;20.20
29423;BMP180;16399;51.686;8.684;2023-08-20T04:28:13;100450.00;;;20.20
29423;BMP180;16399;51.686;8.684;2023-08-20T04:31:15;100433.00;;;20.20
29423;BMP180;16399;51.686;8.684;2023-08-20T04:34:17;100429.00;;;20.20
29423;BMP180;16399;51.686;8.684;2023-08-20T04:37:20;100434.00;;;20.20
29423;BMP180;16399;51.686;8.684;2023-08-20T04:40:22;100441.00;;;20.20
29423;BMP180;16399;51.686;8.684;2023-08-20T04:43:24;100441.00;;;20.10
29423;BMP180;16399;51.686;8.684;2023-08-20T04:46:27;100448.00;;;20.20
29423;BMP180;16399;51.686;8.684;2023-08-20T04:49:29;100432.00;;;20.20
29423;BMP180;16399;51.686;8.684;2023-08-20T04:52:32;100445.00;;;20.20
29423;BMP180;16399;51.686;8.684;2023-08-20T04:55:35;100457.00;;;20.10
29423;BMP180;16399;51.686;8.684;2023-08-20T04:58:37;100457.00;;;20.20
29423;BMP180;16399;51.686;8.684;2023-08-20T05:01:39;100469.00;;;20.10
29423;BMP180;16399;51.686;8.684;2023-08-20T05:04:41;100476.00;;;20.10
29423;BMP180;16399;51.686;8.684;2023-08-20T05:07:44;100469.00;;;20.10
29423;BMP180;16399;51.686;8.684;2023-08-20T05:10:46;100463.00;;;20.20
29423;BMP180;16399;51.686;8.684;2023-08-20T05:13:50;100467.00;;;20.20
29423;BMP180;16399;51.686;8.684;2023-08-20T05:16:52;100473.00;;;20.20
29423;BMP180;16399;51.686;8.684;2023-08-20T05:19:54;100477.00;;;20.20
29423;BMP180;16399;51.686;8.684;2023-08-20T05:22:56;100479.00;;;20.30
29423;BMP180;16399;51.686;8.684;2023-08-20T05:25:59;100470.00;;;20.30
29423;BMP180;16399;51.686;8.684;2023-08-20T05:29:01;100472.00;;;20.40
29423;BMP180;16399;51.686;8.684;2023-08-20T05:32:03;100458.00;;;20.50
29423;BMP180;16399;51.686;8.684;2023-08-20T05:35:06;100475.00;;;20.50
29423;BMP180;16399;51.686;8.684;2023-08-20T05:38:08;100471.00;;;20.60
29423;BMP180;16399;51.686;8.684;2023-08-20T05:41:11;100468.00;;;20.70
29423;BMP180;16399;51.686;8.684;2023-08-20T05:44:13;100470.00;;;20.70
29423;BMP180;16399;51.686;8.684;2023-08-20T05:47:16;100486.00;;;20.80
29423;BMP180;16399;51.686;8.684;2023-08-20T05:50:18;100480.00;;;20.90
29423;BMP180;16399;51.686;8.684;2023-08-20T05:53:26;100475.00;;;21.00
29423;BMP180;16399;51.686;8.684;2023-08-20T05:56:24;100474.00;;;21.00
29423;BMP180;16399;51.686;8.684;2023-08-20T05:59:26;100474.00;;;21.00
29423;BMP180;16399;51.686;8.684;2023-08-20T06:02:29;100472.00;;;21.00
29423;BMP180;16399;51.686;8.684;2023-08-20T06:05:31;100458.00;;;21.00
29423;BMP180;16399;51.686;8.684;2023-08-20T06:08:33;100479.00;;;21.00
29423;BMP180;16399;51.686;8.684;2023-08-20T06:11:35;100481.00;;;21.00
29423;BMP180;16399;51.686;8.684;2023-08-20T06:14:38;100483.00;;;21.00
29423;BMP180;16399;51.686;8.684;2023-08-20T06:17:41;100489.00;;;21.00
29423;BMP180;16399;51.686;8.684;2023-08-20T06:20:43;100500.00;;;21.10
29423;BMP180;16399;51.686;8.684;2023-08-20T06:23:46;100492.00;;;21.10
29423;BMP180;16399;51.686;8.684;2023-08-20T06:26:48;100504.00;;;21.20
29423;BMP180;16399;51.686;8.684;2023-08-20T06:29:50;100499.00;;;21.30
29423;BMP180;16399;51.686;8.684;2023-08-20T06:32:53;100493.00;;;21.30
29423;BMP180;16399;51.686;8.684;2023-08-20T06:35:55;100493.00;;;21.40
29423;BMP180;16399;51.686;8.684;2023-08-20T06:38:57;100484.00;;;21.50
29423;BMP180;16399;51.686;8.684;2023-08-20T06:42:00;100497.00;;;21.70
29423;BMP180;16399;51.686;8.684;2023-08-20T06:45:02;100507.00;;;21.70
29423;BMP180;16399;51.686;8.684;2023-08-20T06:48:04;100499.00;;;21.80
29423;BMP180;16399;51.686;8.684;2023-08-20T06:51:15;100496.00;;;21.80
29423;BMP180;16399;51.686;8.684;2023-08-20T06:54:17;100499.00;;;21.90
29423;BMP180;16399;51.686;8.684;2023-08-20T06:57:19;100485.00;;;22.00
29423;BMP180;16399;51.686;8.684;2023-08-20T07:00:22;100492.00;;;22.20
29423;BMP180;16399;51.686;8.684;2023-08-20T07:03:24;100484.00;;;22.30
29423;BMP180;16399;51.686;8.684;2023-08-20T07:06:26;100488.00;;;22.30
29423;BMP180;16399;51.686;8.684;2023-08-20T07:09:29;100480.00;;;22.30
29423;BMP180;16399;51.686;8.684;2023-08-20T07:12:31;100478.00;;;22.30
29423;BMP180;16399;51.686;8.684;2023-08-20T07:15:33;100476.00;;;22.30
29423;BMP180;16399;51.686;8.684;2023-08-20T07:18:35;100483.00;;;22.40
29423;BMP180;16399;51.686;8.684;2023-08-20T07:21:38;100481.00;;;22.40
29423;BMP180;16399;51.686;8.684;2023-08-20T07:24:40;100483.00;;;22.40
29423;BMP180;16399;51.686;8.684;2023-08-20T07:27:42;100480.00;;;22.50
29423;BMP180;16399;51.686;8.684;2023-08-20T07:30:46;100472.00;;;22.40
29423;BMP180;16399;51.686;8.684;2023-08-20T07:33:51;100476.00;;;22.50
29423;BMP180;16399;51.686;8.684;2023-08-20T07:36:53;100475.00;;;22.60
29423;BMP180;16399;51.686;8.684;2023-08-20T07:39:55;100478.00;;;22.70
29423;BMP180;16399;51.686;8.684;2023-08-20T07:42:58;100484.00;;;22.90
29423;BMP180;16399;51.686;8.684;2023-08-20T07:46:00;100474.00;;;23.00
29423;BMP180;16399;51.686;8.684;2023-08-20T07:49:02;100483.00;;;23.10
29423;BMP180;16399;51.686;8.684;2023-08-20T07:52:05;100491.00;;;23.30
29423;BMP180;16399;51.686;8.684;2023-08-20T07:55:07;100485.00;;;23.40
29423;BMP180;16399;51.686;8.684;2023-08-20T07:58:10;100487.00;;;23.50
29423;BMP180;16399;51.686;8.684;2023-08-20T08:01:12;100493.00;;;23.60
29423;BMP180;16399;51.686;8.684;2023-08-20T08:04:15;100487.00;;;23.60
29423;BMP180;16399;51.686;8.684;2023-08-20T08:07:17;100478.00;;;23.60
29423;BMP180;16399;51.686;8.684;2023-08-20T08:10:19;100483.00;;;23.50
29423;BMP180;16399;51.686;8.684;2023-08-20T08:13:23;100490.00;;;23.60
29423;BMP180;16399;51.686;8.684;2023-08-20T08:16:25;100489.00;;;23.70
29423;BMP180;16399;51.686;8.684;2023-08-20T08:19:28;100492.00;;;23.80
29423;BMP180;16399;51.686;8.684;2023-08-20T08:22:30;100494.00;;;23.70
29423;BMP180;16399;51.686;8.684;2023-08-20T08:25:32;100487.00;;;23.70
29423;BMP180;16399;51.686;8.684;2023-08-20T08:28:35;100492.00;;;23.80
29423;BMP180;16399;51.686;8.684;2023-08-20T08:31:37;100489.00;;;23.80
29423;BMP180;16399;51.686;8.684;2023-08-20T08:34:39;100492.00;;;24.00
29423;BMP180;16399;51.686;8.684;2023-08-20T08:37:41;100484.00;;;24.10
29423;BMP180;16399;51.686;8.684;2023-08-20T08:40:44;100479.00;;;24.20
29423;BMP180;16399;51.686;8.684;2023-08-20T08:43:47;100483.00;;;24.40
29423;BMP180;16399;51.686;8.684;2023-08-20T08:46:50;100487.00;;;24.70
29423;BMP180;16399;51.686;8.684;2023-08-20T08:49:55;100481.00;;;24.90
29423;BMP180;16399;51.686;8.684;2023-08-20T08:53:01;100488.00;;;25.00
29423;BMP180;16399;51.686;8.684;2023-08-20T08:56:03;100485.00;;;25.10
29423;BMP180;16399;51.686;8.684;2023-08-20T08:59:06;100495.00;;;25.10
29423;BMP180;16399;51.686;8.684;2023-08-20T09:02:10;100501.00;;;25.20
29423;BMP180;16399;51.686;8.684;2023-08-20T09:05:15;100488.00;;;25.20
29423;BMP180;16399;51.686;8.684;2023-08-20T09:08:21;100502.00;;;25.30
29423;BMP180;16399;51.686;8.684;2023-08-20T09:11:33;100493.00;;;25.40
29423;BMP180;16399;51.686;8.684;2023-08-20T09:14:30;100500.00;;;25.50
29423;BMP180;16399;51.686;8.684;2023-08-20T09:17:32;100503.00;;;25.40
29423;BMP180;16399;51.686;8.684;2023-08-20T09:20:37;100499.00;;;25.40
29423;BMP180;16399;51.686;8.684;2023-08-20T09:23:40;100495.00;;;25.30
29423;BMP180;16399;51.686;8.684;2023-08-20T09:26:47;100493.00;;;25.30
29423;BMP180;16399;51.686;8.684;2023-08-20T09:29:54;100479.00;;;25.40
29423;BMP180;16399;51.686;8.684;2023-08-20T09:33:09;100492.00;;;25.60
29423;BMP180;16399;51.686;8.684;2023-08-20T09:36:10;100479.00;;;25.80
29423;BMP180;16399;51.686;8.684;2023-08-20T09:39:13;100483.00;;;26.20
29423;BMP180;16399;51.686;8.684;2023-08-20T09:42:15;100479.00;;;26.70
29423;BMP180;16399;51.686;8.684;2023-08-20T09:45:20;100484.00;;;27.00
29423;BMP180;16399;51.686;8.684;2023-08-20T09:48:24;100484.00;;;27.20
29423;BMP180;16399;51.686;8.684;2023-08-20T09:51:27;100483.00;;;27.50
29423;BMP180;16399;51.686;8.684;2023-08-20T09:54:49;100490.00;;;27.60
29423;BMP180;16399;51.686;8.684;2023-08-20T09:57:48;100477.00;;;27.50
29423;BMP180;16399;51.686;8.684;2023-08-20T10:00:51;100481.00;;;27.60
29423;BMP180;16399;51.686;8.684;2023-08-20T10:03:53;100484.00;;;27.70
29423;BMP180;16399;51.686;8.684;2023-08-20T10:06:57;100478.00;;;27.50
29423;BMP180;16399;51.686;8.684;2023-08-20T10:10:08;100480.00;;;27.50
29423;BMP180;16399;51.686;8.684;2023-08-20T10:13:13;100485.00;;;27.60
29423;BMP180;16399;51.686;8.684;2023-08-20T10:16:17;100485.00;;;27.70
29423;BMP180;16399;51.686;8.684;2023-08-20T10:19:25;100476.00;;;27.90
29423;BMP180;16399;51.686;8.684;2023-08-20T10:22:37;100487.00;;;28.00
29423;BMP180;16399;51.686;8.684;2023-08-20T10:25:42;100486.00;;;27.90
29423;BMP180;16399;51.686;8.684;2023-08-20T10:28:46;100483.00;;;27.70
29423;BMP180;16399;51.686;8.684;2023-08-20T10:31:49;100482.00;;;27.70
29423;BMP180;16399;51.686;8.684;2023-08-20T10:34:52;100477.00;;;27.80
29423;BMP180;16399;51.686;8.684;2023-08-20T10:38:06;100485.00;;;27.80
29423;BMP180;16399;51.686;8.684;2023-08-20T10:41:09;100490.00;;;27.70
29423;BMP180;16399;51.686;8.684;2023-08-20T10:44:11;100485.00;;;27.50
29423;BMP180;16399;51.686;8.684;2023-08-20T10:47:16;100486.00;;;27.20
29423;BMP180;16399;51.686;8.684;2023-08-20T10:50:19;100492.00;;;27.00
29423;BMP180;16399;51.686;8.684;2023-08-20T10:53:22;100488.00;;;26.70
29423;BMP180;16399;51.686;8.684;2023-08-20T10:59:58;100497.00;;;26.30
29423;BMP180;16399;51.686;8.684;2023-08-20T11:03:00;100487.00;;;26.20
29423;BMP180;16399;51.686;8.684;2023-08-20T11:06:03;100487.00;;;26.10
29423;BMP180;16399;51.686;8.684;2023-08-20T11:09:05;100486.00;;;26.20
29423;BMP180;16399;51.686;8.684;2023-08-20T11:12:08;100489.00;;;26.20
29423;BMP180;16399;51.686;8.684;2023-08-20T11:15:10;100491.00;;;26.20
29423;BMP180;16399;51.686;8.684;2023-08-20T11:18:15;100486.00;;;26.30
29423;BMP180;16399;51.686;8.684;2023-08-20T11:21:18;100493.00;;;26.20
29423;BMP180;16399;51.686;8.684;2023-08-20T11:24:21;100494.00;;;26.20
29423;BMP180;16399;51.686;8.684;2023-08-20T11:27:29;100500.00;;;26.10
29423;BMP180;16399;51.686;8.684;2023-08-20T11:30:30;100498.00;;;26.00
29423;BMP180;16399;51.686;8.684;2023-08-20T11:33:32;100493.00;;;26.00
29423;BMP180;16399;51.686;8.684;2023-08-20T11:36:41;100488.00;;;26.20
29423;BMP180;16399;51.686;8.684;2023-08-20T11:39:43;100489.00;;;26.40
29423;BMP180;16399;51.686;8.684;2023-08-20T11:42:45;100501.00;;;26.50
29423;BMP180;16399;51.686;8.684;2023-08-20T11:45:48;100497.00;;;26.50
29423;BMP180;16399;51.686;8.684;2023-08-20T11:49:05;100495.00;;;26.40
29423;BMP180;16399;51.686;8.684;2023-08-20T11:52:07;100502.00;;;26.30
29423;BMP180;16399;51.686;8.684;2023-08-20T11:55:10;100502.00;;;26.20
29423;BMP180;16399;51.686;8.684;2023-08-20T11:58:13;100499.00;;;26.10
29423;BMP180;16399;51.686;8.684;2023-08-20T12:01:15;100484.00;;;26.10
29423;BMP180;16399;51.686;8.684;2023-08-20T12:04:17;100480.00;;;26.40
29423;BMP180;16399;51.686;8.684;2023-08-20T12:07:19;100476.00;;;26.70
29423;BMP180;16399;51.686;8.684;2023-08-20T12:10:22;100482.00;;;27.10
29423;BMP180;16399;51.686;8.684;2023-08-20T12:13:25;100470.00;;;27.30
29423;BMP180;16399;51.686;8.684;2023-08-20T12:16:27;100468.00;;;27.50
29423;BMP180;16399;51.686;8.684;2023-08-20T12:19:30;100473.00;;;27.70
29423;BMP180;16399;51.686;8.684;2023-08-20T12:22:32;100472.00;;;27.80
29423;BMP180;16399;51.686;8.684;2023-08-20T12:25:35;100460.00;;;27.90
29423;BMP180;16399;51.686;8.684;2023-08-20T12:28:38;100468.00;;;28.00
29423;BMP180;16399;51.686;8.684;2023-08-20T12:31:41;100468.00;;;28.00
29423;BMP180;16399;51.686;8.684;2023-08-20T12:34:43;100469.00;;;27.90
29423;BMP180;16399;51.686;8.684;2023-08-20T12:37:45;100463.00;;;27.70
29423;BMP180;16399;51.686;8.684;2023-08-20T12:40:48;100469.00;;;27.60
29423;BMP180;16399;51.686;8.684;2023-08-20T12:43:50;100467.00;;;27.50
29423;BMP180;16399;51.686;8.684;2023-08-20T12:46:52;100462.00;;;27.30
29423;BMP180;16399;51.686;8.684;2023-08-20T12:49:55;100454.00;;;27.10
29423;BMP180;16399;51.686;8.684;2023-08-20T12:52:57;100459.00;;;27.20
29423;BMP180;16399;51.686;8.684;2023-08-20T12:55:59;100452.00;;;27.40
29423;BMP180;16399;51.686;8.684;2023-08-20T12:59:02;100454.00;;;27.60
29423;BMP180;16399;51.686;8.684;2023-08-20T13:02:04;100448.00;;;27.90
29423;BMP180;16399;51.686;8.684;2023-08-20T13:05:07;100453.00;;;28.00
29423;BMP180;16399;51.686;8.684;2023-08-20T13:08:11;100453.00;;;28.20
29423;BMP180;16399;51.686;8.684;2023-08-20T13:11:14;100454.00;;;28.50
29423;BMP180;16399;51.686;8.684;2023-08-20T13:14:17;100462.00;;;28.70
29423;BMP180;16399;51.686;8.684;2023-08-20T13:17:20;100451.00;;;28.70
29423;BMP180;16399;51.686;8.684;2023-08-20T13:20:22;100463.00;;;28.70
29423;BMP180;16399;51.686;8.684;2023-08-20T13:23:26;100455.00;;;28.60
29423;BMP180;16399;51.686;8.684;2023-08-20T13:26:28;100452.00;;;28.50
29423;BMP180;16399;51.686;8.684;2023-08-20T13:29:30;100456.00;;;28.30
29423;BMP180;16399;51.686;8.684;2023-08-20T13:32:33;100464.00;;;28.10
29423;BMP180;16399;51.686;8.684;2023-08-20T13:35:35;100453.00;;;27.90
29423;BMP180;16399;51.686;8.684;2023-08-20T13:38:37;100450.00;;;27.60
29423;BMP180;16399;51.686;8.684;2023-08-20T13:41:40;100446.00;;;27.50
29423;BMP180;16399;51.686;8.684;2023-08-20T13:44:42;100440.00;;;27.40
29423;BMP180;16399;51.686;8.684;2023-08-20T13:47:45;100448.00;;;27.40
29423;BMP180;16399;51.686;8.684;2023-08-20T13:50:47;100450.00;;;27.40
29423;BMP180;16399;51.686;8.684;2023-08-20T13:53:50;100444.00;;;27.40
29423;BMP180;16399;51.686;8.684;2023-08-20T13:56:52;100435.00;;;27.50
29423;BMP180;16399;51.686;8.684;2023-08-20T13:59:54;100445.00;;;27.50
29423;BMP180;16399;51.686;8.684;2023-08-20T14:02:57;100438.00;;;27.40
29423;BMP180;16399;51.686;8.684;2023-08-20T14:06:00;100448.00;;;27.20
29423;BMP180;16399;51.686;8.684;2023-08-20T14:09:02;100448.00;;;27.00
29423;BMP180;16399;51.686;8.684;2023-08-20T14:12:06;100442.00;;;26.70
29423;BMP180;16399;51.686;8.684;2023-08-20T14:15:09;100452.00;;;26.60
29423;BMP180;16399;51.686;8.684;2023-08-20T14:18:11;100448.00;;;26.40
29423;BMP180;16399;51.686;8.684;2023-08-20T14:21:13;100449.00;;;26.20
29423;BMP180;16399;51.686;8.684;2023-08-20T14:24:16;100441.00;;;26.20
29423;BMP180;16399;51.686;8.684;2023-08-20T14:27:18;100442.00;;;26.10
29423;BMP180;16399;51.686;8.684;2023-08-20T14:30:21;100442.00;;;26.10
29423;BMP180;16399;51.686;8.684;2023-08-20T14:33:23;100426.00;;;26.10
29423;BMP180;16399;51.686;8.684;2023-08-20T14:36:26;100435.00;;;26.10
29423;BMP180;16399;51.686;8.684;2023-08-20T14:39:28;100426.00;;;26.20
29423;BMP180;16399;51.686;8.684;2023-08-20T14:42:33;100420.00;;;26.40
29423;BMP180;16399;51.686;8.684;2023-08-20T14:45:35;100418.00;;;26.50
29423;BMP180;16399;51.686;8.684;2023-08-20T14:48:38;100421.00;;;26.70
29423;BMP180;16399;51.686;8.684;2023-08-20T14:51:42;100412.00;;;26.80
29423;BMP180;16399;51.686;8.684;2023-08-20T14:54:44;100400.00;;;26.90
29423;BMP180;16399;51.686;8.684;2023-08-20T14:57:47;100415.00;;;27.00
29423;BMP180;16399;51.686;8.684;2023-08-20T15:00:50;100421.00;;;27.10
29423;BMP180;16399;51.686;8.684;2023-08-20T15:03:52;100421.00;;;27.00
29423;BMP180;16399;51.686;8.684;2023-08-20T15:06:54;100419.00;;;27.00
29423;BMP180;16399;51.686;8.684;2023-08-20T15:09:56;100407.00;;;26.90
29423;BMP180;16399;51.686;8.684;2023-08-20T15:12:59;100414.00;;;26.80
29423;BMP180;16399;51.686;8.684;2023-08-20T15:16:01;100418.00;;;26.70
29423;BMP180;16399;51.686;8.684;2023-08-20T15:19:03;100412.00;;;26.70
29423;BMP180;16399;51.686;8.684;2023-08-20T15:22:06;100415.00;;;26.80
29423;BMP180;16399;51.686;8.684;2023-08-20T15:25:08;100411.00;;;26.90
29423;BMP180;16399;51.686;8.684;2023-08-20T15:28:12;100401.00;;;27.00
29423;BMP180;16399;51.686;8.684;2023-08-20T15:31:14;100406.00;;;27.00
29423;BMP180;16399;51.686;8.684;2023-08-20T15:34:17;100397.00;;;27.10
29423;BMP180;16399;51.686;8.684;2023-08-20T15:37:19;100395.00;;;27.10
29423;BMP180;16399;51.686;8.684;2023-08-20T15:40:22;100390.00;;;27.10
29423;BMP180;16399;51.686;8.684;2023-08-20T15:43:24;100401.00;;;27.20
29423;BMP180;16399;51.686;8.684;2023-08-20T15:46:26;100404.00;;;27.20
29423;BMP180;16399;51.686;8.684;2023-08-20T15:49:29;100395.00;;;27.30
29423;BMP180;16399;51.686;8.684;2023-08-20T15:52:31;100404.00;;;27.30
29423;BMP180;16399;51.686;8.684;2023-08-20T15:55:34;100408.00;;;27.30
29423;BMP180;16399;51.686;8.684;2023-08-20T15:58:36;100408.00;;;27.40
29423;BMP180;16399;51.686;8.684;2023-08-20T16:01:39;100416.00;;;27.50
29423;BMP180;16399;51.686;8.684;2023-08-20T16:04:41;100413.00;;;27.40
29423;BMP180;16399;51.686;8.684;2023-08-20T16:07:44;100407.00;;;27.20
29423;BMP180;16399;51.686;8.684;2023-08-20T16:10:46;100410.00;;;27.20
29423;BMP180;16399;51.686;8.684;2023-08-20T16:13:49;100408.00;;;27.10
29423;BMP180;16399;51.686;8.684;2023-08-20T16:16:51;100401.00;;;27.10
29423;BMP180;16399;51.686;8.684;2023-08-20T16:19:53;100404.00;;;27.10
29423;BMP180;16399;51.686;8.684;2023-08-20T16:22:56;100403.00;;;27.10
29423;BMP180;16399;51.686;8.684;2023-08-20T16:25:58;100410.00;;;27.00
29423;BMP180;16399;51.686;8.684;2023-08-20T16:29:00;100413.00;;;26.90
29423;BMP180;16399;51.686;8.684;2023-08-20T16:32:03;100412.00;;;26.90
29423;BMP180;16399;51.686;8.684;2023-08-20T16:35:06;100415.00;;;26.90
29423;BMP180;16399;51.686;8.684;2023-08-20T16:38:08;100415.00;;;26.80
29423;BMP180;16399;51.686;8.684;2023-08-20T16:41:10;100412.00;;;26.70
29423;BMP180;16399;51.686;8.684;2023-08-20T16:44:13;100419.00;;;26.60
29423;BMP180;16399;51.686;8.684;2023-08-20T16:47:16;100415.00;;;26.50
29423;BMP180;16399;51.686;8.684;2023-08-20T16:50:18;100415.00;;;26.40
29423;BMP180;16399;51.686;8.684;2023-08-20T16:53:20;100419.00;;;26.20
29423;BMP180;16399;51.686;8.684;2023-08-20T16:56:25;100425.00;;;26.10
29423;BMP180;16399;51.686;8.684;2023-08-20T16:59:27;100424.00;;;26.00
29423;BMP180;16399;51.686;8.684;2023-08-20T17:02:29;100426.00;;;26.00
29423;BMP180;16399;51.686;8.684;2023-08-20T17:05:32;100416.00;;;25.90
29423;BMP180;16399;51.686;8.684;2023-08-20T17:08:34;100432.00;;;25.80
29423;BMP180;16399;51.686;8.684;2023-08-20T17:11:37;100416.00;;;25.70
29423;BMP180;16399;51.686;8.684;2023-08-20T17:14:39;100419.00;;;25.60
29423;BMP180;16399;51.686;8.684;2023-08-20T17:17:41;100422.00;;;25.60
29423;BMP180;16399;51.686;8.684;2023-08-20T17:20:44;100418.00;;;25.50
29423;BMP180;16399;51.686;8.684;2023-08-20T17:23:47;100410.00;;;25.40
29423;BMP180;16399;51.686;8.684;2023-08-20T17:26:49;100423.00;;;25.40
29423;BMP180;16399;51.686;8.684;2023-08-20T17:29:51;100421.00;;;25.30